Time;durP1;ratioP1;P1;durP2;ratioP2;P2;SDS_P1;SDS_P2;PMS_P1;PMS_P2;Temp;Humidity;BMP_temperature;BMP_pressure;BME280_temperature;BME280_humidity;BME280_pressure;Samples;Min_cycle;Max_cycle;Signal;HPM_P1;HPM_P2
2022/10/14 00:01:34;;;;;;;1999.90;999.90;;;14.80;99.90;;;;;;4925249;29;20738;-66
2022/10/14 00:04:00;;;;;;;1999.90;999.90;;;14.80;99.90;;;;;;4939237;29;20211;-65
2022/10/14 00:06:28;;;;;;;1999.90;999.90;;;14.80;99.90;;;;;;4920014;29;20201;-66
2022/10/14 00:08:54;;;;;;;1999.90;999.90;;;14.70;99.90;;;;;;4920064;29;20460;-66
2022/10/14 00:11:26;;;;;;;1999.90;999.90;;;14.60;99.90;;;;;;4920136;29;20439;-66
2022/10/14 00:14:00;;;;;;;1999.90;999.90;;;14.50;99.90;;;;;;4920110;29;21039;-66
2022/10/14 00:16:32;;;;;;;1999.90;999.90;;;14.40;99.90;;;;;;4920111;29;20427;-66
2022/10/14 00:19:00;;;;;;;1999.90;999.90;;;14.40;99.90;;;;;;4919584;29;20457;-67
2022/10/14 00:21:27;;;;;;;1999.90;999.90;;;14.40;99.90;;;;;;4919773;29;20862;-66
2022/10/14 00:23:53;;;;;;;1999.90;999.90;;;14.40;99.90;;;;;;4919468;29;20477;-65
2022/10/14 00:26:25;;;;;;;1999.90;999.90;;;14.30;99.90;;;;;;4917486;29;20463;-66
2022/10/14 00:28:51;;;;;;;1999.90;999.90;;;14.30;99.90;;;;;;4920099;29;20404;-67
2022/10/14 00:31:17;;;;;;;1999.90;999.90;;;14.30;99.90;;;;;;4921751;29;20425;-67
2022/10/14 00:33:43;;;;;;;1999.90;999.90;;;14.30;99.90;;;;;;4919852;29;20402;-65
2022/10/14 00:36:14;;;;;;;1999.90;999.90;;;14.30;99.90;;;;;;4916667;29;20512;-65
2022/10/14 00:38:40;;;;;;;1999.90;999.90;;;14.20;99.90;;;;;;4916677;29;20256;-66
2022/10/14 00:41:06;;;;;;;1999.90;999.90;;;14.30;99.90;;;;;;4918176;29;20500;-66
2022/10/14 00:43:52;;;;;;;1999.90;999.90;;;14.30;99.90;;;;;;4917346;29;20197;-65
2022/10/14 00:46:18;;;;;;;1999.90;999.90;;;14.30;99.90;;;;;;4920852;29;20447;-65
2022/10/14 00:48:43;;;;;;;1999.90;999.90;;;14.30;99.90;;;;;;4919976;29;20412;-67
2022/10/14 00:51:09;;;;;;;1999.90;999.90;;;14.30;99.90;;;;;;4918679;29;20180;-65
2022/10/14 00:53:36;;;;;;;1999.90;999.90;;;14.30;99.90;;;;;;4916539;29;20735;-65
2022/10/14 00:56:03;;;;;;;1999.90;999.90;;;14.30;99.90;;;;;;4916374;29;20286;-65
2022/10/14 00:58:29;;;;;;;1999.90;999.90;;;14.30;99.90;;;;;;4917670;29;20421;-65
2022/10/14 01:00:55;;;;;;;1999.90;999.90;;;14.30;99.90;;;;;;4916425;29;20418;-65
2022/10/14 01:03:22;;;;;;;1999.90;999.90;;;14.40;99.90;;;;;;4920241;29;20580;-66
2022/10/14 01:06:03;;;;;;;1999.90;999.90;;;14.30;99.90;;;;;;4915882;29;20411;-66
2022/10/14 01:08:43;;;;;;;1999.90;999.90;;;14.30;99.90;;;;;;4920600;29;20777;-65
2022/10/14 01:11:16;;;;;;;1999.90;999.90;;;14.30;99.90;;;;;;4920003;29;20407;-66
2022/10/14 01:14:03;;;;;;;1999.90;999.90;;;14.30;99.90;;;;;;4918845;29;20419;-66
2022/10/14 01:16:56;;;;;;;1999.90;999.90;;;14.30;99.90;;;;;;4919123;29;20500;-67
2022/10/14 01:19:36;;;;;;;1999.90;999.90;;;14.30;99.90;;;;;;4916292;29;20410;-66
2022/10/14 01:22:22;;;;;;;1999.90;999.90;;;14.30;99.90;;;;;;4916278;29;20415;-65
2022/10/14 01:24:48;;;;;;;1999.90;999.90;;;14.30;99.90;;;;;;4916754;29;20512;-66
2022/10/14 01:27:39;;;;;;;1999.90;999.90;;;14.30;99.90;;;;;;4915894;29;20463;-65
2022/10/14 01:30:26;;;;;;;1999.90;999.90;;;14.30;99.90;;;;;;4918468;29;20203;-66
2022/10/14 01:33:03;;;;;;;1999.90;999.90;;;14.30;99.90;;;;;;4916693;29;20920;-66
2022/10/14 01:35:38;;;;;;;1999.90;999.90;;;14.30;99.90;;;;;;4915943;29;20438;-65
2022/10/14 01:38:22;;;;;;;1999.90;999.90;;;14.30;99.90;;;;;;4915812;29;20796;-66
2022/10/14 01:41:02;;;;;;;1999.90;999.90;;;14.40;99.90;;;;;;4916394;29;20455;-66
2022/10/14 01:43:30;;;;;;;1999.90;999.90;;;14.30;99.90;;;;;;4919241;29;20449;-66
2022/10/14 01:45:59;;;;;;;1999.90;999.90;;;14.30;99.90;;;;;;4919526;29;20958;-66
2022/10/14 01:48:32;;;;;;;1999.90;999.90;;;14.20;99.90;;;;;;4920407;29;20450;-67
2022/10/14 01:51:02;;;;;;;1999.90;999.90;;;14.20;99.90;;;;;;4916050;29;20916;-65
2022/10/14 01:53:38;;;;;;;1999.90;999.90;;;14.20;99.90;;;;;;4916667;29;20430;-65
2022/10/14 01:56:05;;;;;;;1999.90;999.90;;;14.20;99.90;;;;;;4918021;29;20450;-65
2022/10/14 01:58:32;;;;;;;1999.90;999.90;;;14.20;99.90;;;;;;4915766;29;20448;-66
2022/10/14 02:01:01;;;;;;;1999.90;999.90;;;14.20;99.90;;;;;;4915830;29;20456;-65
2022/10/14 02:03:46;;;;;;;1999.90;999.90;;;14.20;99.90;;;;;;4917983;29;20581;-66
2022/10/14 02:06:29;;;;;;;1999.90;999.90;;;14.20;99.90;;;;;;4916676;29;20434;-65
2022/10/14 02:09:27;;;;;;;1999.90;999.90;;;14.30;99.90;;;;;;4915772;29;20495;-66
2022/10/14 02:12:23;;;;;;;1999.90;999.90;;;14.30;99.90;;;;;;4918425;29;20420;-66
2022/10/14 02:15:14;;;;;;;1999.90;999.90;;;14.30;99.90;;;;;;4918374;29;20949;-66
2022/10/14 02:17:51;;;;;;;1999.90;999.90;;;14.30;99.90;;;;;;4920209;29;20436;-65
2022/10/14 02:20:36;;;;;;;1999.90;999.90;;;14.30;99.90;;;;;;4921491;29;20404;-65
2022/10/14 02:23:13;;;;;;;1999.90;999.90;;;14.40;99.90;;;;;;4919386;29;21050;-65
2022/10/14 02:25:41;;;;;;;1999.90;999.90;;;14.30;99.90;;;;;;4919183;29;20435;-65
2022/10/14 02:28:09;;;;;;;1999.90;999.90;;;14.30;99.90;;;;;;4919797;29;20415;-66
2022/10/14 02:30:40;;;;;;;1999.90;999.90;;;14.30;99.90;;;;;;4922383;29;20403;-66
2022/10/14 02:33:06;;;;;;;1999.90;999.90;;;14.20;99.90;;;;;;4923820;29;20421;-66
2022/10/14 02:35:33;;;;;;;1999.90;999.90;;;14.20;99.90;;;;;;4920877;29;20405;-65
2022/10/14 02:38:00;;;;;;;1999.90;999.90;;;14.20;99.90;;;;;;4921379;29;20804;-66
2022/10/14 02:40:34;;;;;;;1999.90;999.90;;;14.20;99.90;;;;;;4919028;29;20854;-65
2022/10/14 02:43:00;;;;;;;1999.90;999.90;;;14.20;99.90;;;;;;4920504;29;20541;-65
2022/10/14 02:45:26;;;;;;;1999.90;999.90;;;14.20;99.90;;;;;;4918865;29;20418;-65
2022/10/14 02:47:52;;;;;;;1999.90;999.90;;;14.20;99.90;;;;;;4920742;29;20257;-66
2022/10/14 02:50:18;;;;;;;1999.90;999.90;;;14.20;99.90;;;;;;4922013;29;20584;-66
2022/10/14 02:52:44;;;;;;;1999.90;999.90;;;14.30;99.90;;;;;;4922013;29;20415;-66
2022/10/14 02:55:10;;;;;;;1999.90;999.90;;;14.30;99.90;;;;;;4921566;29;20228;-67
2022/10/14 02:57:36;;;;;;;1999.90;999.90;;;14.30;99.90;;;;;;4921328;29;20432;-66
2022/10/14 03:00:03;;;;;;;1999.90;999.90;;;14.30;99.90;;;;;;4921918;29;20420;-66
2022/10/14 03:02:29;;;;;;;1999.90;999.90;;;14.30;99.90;;;;;;4921690;29;20265;-66
2022/10/14 03:04:54;;;;;;;1999.90;999.90;;;14.30;99.90;;;;;;4921754;29;20546;-66
2022/10/14 03:07:20;;;;;;;1999.90;999.90;;;14.30;99.90;;;;;;4921753;29;20198;-66
2022/10/14 03:09:45;;;;;;;1999.90;999.90;;;14.40;99.90;;;;;;4921625;29;20214;-66
2022/10/14 03:12:11;;;;;;;1999.90;999.90;;;14.40;99.90;;;;;;4921852;29;20243;-66
2022/10/14 03:14:36;;;;;;;1999.90;999.90;;;14.40;99.90;;;;;;4920168;29;20183;-65
2022/10/14 03:17:02;;;;;;;1999.90;999.90;;;14.40;99.90;;;;;;4917973;29;20707;-65
2022/10/14 03:19:28;;;;;;;1999.90;999.90;;;14.40;99.90;;;;;;4920882;29;20271;-66
2022/10/14 03:21:53;;;;;;;1999.90;999.90;;;14.30;99.90;;;;;;4919021;29;20696;-65
2022/10/14 03:24:19;;;;;;;1999.90;999.90;;;14.30;99.90;;;;;;4919175;29;20287;-65
2022/10/14 03:26:44;;;;;;;1999.90;999.90;;;14.20;99.90;;;;;;4920422;29;20201;-66
2022/10/14 03:29:10;;;;;;;1999.90;999.90;;;14.20;99.90;;;;;;4920987;29;20251;-66
2022/10/14 03:31:36;;;;;;;1999.90;999.90;;;14.20;99.90;;;;;;4921617;29;20169;-66
2022/10/14 03:34:02;;;;;;;1999.90;999.90;;;14.10;99.90;;;;;;4919272;29;20715;-66
2022/10/14 03:36:28;;;;;;;1999.90;999.90;;;14.20;99.90;;;;;;4920989;29;20190;-66
2022/10/14 03:38:53;;;;;;;1999.90;999.90;;;14.20;99.90;;;;;;4920285;29;20429;-66
2022/10/14 03:41:19;;;;;;;1999.90;999.90;;;14.20;99.90;;;;;;4920379;29;20171;-66
2022/10/14 03:43:44;;;;;;;1999.90;999.90;;;14.20;99.90;;;;;;4920013;29;20355;-66
2022/10/14 03:46:10;;;;;;;1999.90;999.90;;;14.20;99.90;;;;;;4921105;29;20200;-65
2022/10/14 03:48:35;;;;;;;1999.90;999.90;;;14.20;99.90;;;;;;4918842;29;20172;-66
2022/10/14 03:51:01;;;;;;;1999.90;999.90;;;14.20;99.90;;;;;;4919866;29;20644;-66
2022/10/14 03:53:27;;;;;;;1999.90;999.90;;;14.30;99.90;;;;;;4922122;29;20187;-66
2022/10/14 03:55:52;;;;;;;1999.90;999.90;;;14.30;99.90;;;;;;4923286;29;20177;-66
2022/10/14 03:58:18;;;;;;;1999.90;999.90;;;14.30;99.90;;;;;;4919251;29;20180;-65
2022/10/14 04:00:43;;;;;;;1999.90;999.90;;;14.30;99.90;;;;;;4917513;29;20558;-65
2022/10/14 04:03:09;;;;;;;1999.90;999.90;;;14.30;99.90;;;;;;4917348;29;20295;-65
2022/10/14 04:05:35;;;;;;;1999.90;999.90;;;14.30;99.90;;;;;;4921964;29;20185;-65
2022/10/14 04:08:02;;;;;;;1999.90;999.90;;;14.30;99.90;;;;;;4917560;29;20192;-66
2022/10/14 04:10:28;;;;;;;1999.90;999.90;;;14.30;99.90;;;;;;4921566;29;20411;-66
2022/10/14 04:12:54;;;;;;;1999.90;999.90;;;14.40;99.90;;;;;;4918226;29;20420;-66
2022/10/14 04:15:19;;;;;;;1999.90;999.90;;;14.40;99.90;;;;;;4917444;29;20180;-65
2022/10/14 04:17:45;;;;;;;1999.90;999.90;;;14.40;99.90;;;;;;4918289;29;20443;-66
2022/10/14 04:20:11;;;;;;;1999.90;999.90;;;14.40;99.90;;;;;;4919345;29;20181;-66
2022/10/14 04:22:36;;;;;;;1999.90;999.90;;;14.50;99.90;;;;;;4918104;29;20252;-66
2022/10/14 04:25:02;;;;;;;1999.90;999.90;;;14.60;99.90;;;;;;4918661;29;20544;-65
2022/10/14 04:27:28;;;;;;;1999.90;999.90;;;14.60;99.90;;;;;;4916695;29;20220;-65
2022/10/14 04:29:53;;;;;;;1999.90;999.90;;;14.60;99.90;;;;;;4918288;29;20422;-65
2022/10/14 04:32:19;;;;;;;1999.90;999.90;;;14.60;99.90;;;;;;4919883;29;20185;-66
2022/10/14 04:34:45;;;;;;;1999.90;999.90;;;14.60;99.90;;;;;;4916921;29;20695;-65
2022/10/14 04:37:11;;;;;;;1999.90;999.90;;;14.60;99.90;;;;;;4916586;29;21109;-65
2022/10/14 04:39:36;;;;;;;1999.90;999.90;;;14.60;99.90;;;;;;4916609;29;20189;-65
2022/10/14 04:42:02;;;;;;;1999.90;999.90;;;14.50;99.90;;;;;;4916786;29;20893;-65
2022/10/14 04:44:28;;;;;;;1999.90;999.90;;;14.50;99.90;;;;;;4918142;29;20212;-65
2022/10/14 04:46:54;;;;;;;1999.90;999.90;;;14.50;99.90;;;;;;4943709;23;20338;-71
2022/10/14 04:49:19;;;;;;;1999.90;999.90;;;14.50;99.90;;;;;;4973873;28;20503;-71
2022/10/14 04:51:45;;;;;;;1999.90;999.90;;;14.50;99.90;;;;;;4974022;28;20264;-71
2022/10/14 04:54:11;;;;;;;1999.90;999.90;;;14.50;99.90;;;;;;4974010;28;20325;-71
2022/10/14 04:56:36;;;;;;;1999.90;999.90;;;14.60;99.90;;;;;;4973636;28;20189;-71
2022/10/14 04:59:03;;;;;;;1999.90;999.90;;;14.60;99.90;;;;;;4973852;28;20647;-71
2022/10/14 05:01:28;;;;;;;1999.90;999.90;;;14.60;99.90;;;;;;4973856;28;20413;-71
2022/10/14 05:03:54;;;;;;;1999.90;999.90;;;14.70;99.90;;;;;;4973730;28;20456;-71
2022/10/14 05:06:20;;;;;;;1999.90;999.90;;;14.60;99.90;;;;;;4973989;28;20191;-70
2022/10/14 05:08:46;;;;;;;1999.90;999.90;;;14.60;99.90;;;;;;4973919;28;20490;-70
2022/10/14 05:11:12;;;;;;;1999.90;999.90;;;14.50;99.90;;;;;;4973951;28;20408;-70
2022/10/14 05:13:37;;;;;;;1999.90;999.90;;;14.50;99.90;;;;;;4973870;28;20256;-71
2022/10/14 05:16:03;;;;;;;1999.90;999.90;;;14.50;99.90;;;;;;4973490;28;20445;-71
2022/10/14 05:18:29;;;;;;;1999.90;999.90;;;14.40;99.90;;;;;;4973457;28;20203;-71
2022/10/14 05:20:58;;;;;;;1999.90;999.90;;;14.40;99.90;;;;;;4973513;28;20171;-71
2022/10/14 05:23:24;;;;;;;1999.90;999.90;;;14.40;99.90;;;;;;4973480;28;20557;-71
2022/10/14 05:25:50;;;;;;;1999.90;999.90;;;14.40;99.90;;;;;;4973413;28;20411;-71
2022/10/14 05:28:16;;;;;;;1999.90;999.90;;;14.40;99.90;;;;;;4973220;28;20483;-71
2022/10/14 05:30:42;;;;;;;1999.90;999.90;;;14.30;99.90;;;;;;4973463;28;20434;-71
2022/10/14 05:33:08;;;;;;;1999.90;999.90;;;14.30;99.90;;;;;;4973486;28;20410;-71
2022/10/14 05:35:34;;;;;;;1999.90;999.90;;;14.40;99.90;;;;;;4973443;28;20940;-71
2022/10/14 05:37:59;;;;;;;1999.90;999.90;;;14.40;99.90;;;;;;4972878;28;20541;-71
2022/10/14 05:40:25;;;;;;;1999.90;999.90;;;14.40;99.90;;;;;;4973247;28;20185;-71
2022/10/14 05:42:50;;;;;;;1999.90;999.90;;;14.40;99.90;;;;;;4973246;28;20269;-71
2022/10/14 05:45:16;;;;;;;1999.90;999.90;;;14.40;99.90;;;;;;4973257;28;20220;-71
2022/10/14 05:47:45;;;;;;;1999.90;999.90;;;14.40;99.90;;;;;;4972733;28;20209;-71
2022/10/14 05:50:11;;;;;;;1999.90;999.90;;;14.40;99.90;;;;;;4973136;28;20178;-71
2022/10/14 05:52:39;;;;;;;1999.90;999.90;;;14.40;99.90;;;;;;4978317;28;20412;-71
2022/10/14 05:55:06;;;;;;;1999.90;999.90;;;14.40;99.90;;;;;;4979496;28;20415;-71
2022/10/14 05:57:32;;;;;;;1999.90;999.90;;;14.50;99.90;;;;;;4979269;28;20915;-71
2022/10/14 05:59:59;;;;;;;1999.90;999.90;;;14.50;99.90;;;;;;4979337;28;20472;-71
2022/10/14 06:02:24;;;;;;;1999.90;999.90;;;14.50;99.90;;;;;;4979518;28;20461;-71
2022/10/14 06:04:50;;;;;;;1999.90;999.90;;;14.50;99.90;;;;;;4979465;28;20876;-71
2022/10/14 06:07:15;;;;;;;1999.90;999.90;;;14.50;99.90;;;;;;4979256;28;20667;-71
2022/10/14 06:09:41;;;;;;;1999.90;999.90;;;14.50;99.90;;;;;;4979393;28;20172;-71
2022/10/14 06:12:08;;;;;;;1999.90;999.90;;;14.50;99.90;;;;;;4979458;28;20175;-71
2022/10/14 06:14:34;;;;;;;1999.90;999.90;;;14.50;99.90;;;;;;4979566;28;20179;-71
2022/10/14 06:16:59;;;;;;;1999.90;999.90;;;14.50;99.90;;;;;;4979292;28;20970;-70
2022/10/14 06:19:25;;;;;;;1999.90;999.90;;;14.50;99.90;;;;;;4979835;28;20178;-70
2022/10/14 06:21:50;;;;;;;1999.90;999.90;;;14.40;99.90;;;;;;4980082;28;20537;-70
2022/10/14 06:24:16;;;;;;;1999.90;999.90;;;14.50;99.90;;;;;;4979811;28;20310;-69
2022/10/14 06:26:41;;;;;;;1999.90;999.90;;;14.50;99.90;;;;;;4979680;28;20185;-70
2022/10/14 06:29:07;;;;;;;1999.90;999.90;;;14.50;99.90;;;;;;4979982;28;20173;-70
2022/10/14 06:31:33;;;;;;;1999.90;999.90;;;14.60;99.90;;;;;;4979822;28;20224;-70
2022/10/14 06:33:59;;;;;;;1999.90;999.90;;;14.50;99.90;;;;;;4980336;28;20177;-70
2022/10/14 06:36:25;;;;;;;1999.90;999.90;;;14.60;99.90;;;;;;4979581;28;20288;-69
2022/10/14 06:38:51;;;;;;;1999.90;999.90;;;14.60;99.90;;;;;;4979668;28;20427;-70
2022/10/14 06:41:16;;;;;;;1999.90;999.90;;;14.60;99.90;;;;;;4979906;28;20501;-70
2022/10/14 06:43:42;;;;;;;1999.90;999.90;;;14.60;99.90;;;;;;4979884;28;20209;-70
2022/10/14 06:46:08;;;;;;;1999.90;999.90;;;14.60;99.90;;;;;;4979960;28;20254;-70
2022/10/14 06:48:33;;;;;;;1999.90;999.90;;;14.60;99.90;;;;;;4979790;28;20700;-70
2022/10/14 06:51:00;;;;;;;1999.90;999.90;;;14.60;99.90;;;;;;4979633;28;20255;-70
2022/10/14 06:53:27;;;;;;;1999.90;999.90;;;14.60;99.90;;;;;;4979538;28;20170;-70
2022/10/14 06:56:01;;;;;;;1999.90;999.90;;;14.70;99.90;;;;;;4979436;28;20411;-70
2022/10/14 06:58:27;;;;;;;1999.90;999.90;;;14.70;99.90;;;;;;4978962;28;20425;-71
2022/10/14 07:00:53;;;;;;;1999.90;999.90;;;14.70;99.90;;;;;;4979383;28;20409;-70
2022/10/14 07:03:18;;;;;;;1999.90;999.90;;;14.60;99.90;;;;;;4977859;28;20554;-71
2022/10/14 07:05:44;;;;;;;1999.90;999.90;;;14.70;99.90;;;;;;4976720;28;20663;-70
2022/10/14 07:08:10;;;;;;;1999.90;999.90;;;14.70;99.90;;;;;;4976241;28;20669;-70
2022/10/14 07:10:36;;;;;;;1999.90;999.90;;;14.60;99.90;;;;;;4976711;28;20588;-70
2022/10/14 07:13:01;;;;;;;1999.90;999.90;;;14.70;99.90;;;;;;4976542;28;20468;-70
2022/10/14 07:15:27;;;;;;;1999.90;999.90;;;14.70;99.90;;;;;;4976252;28;20197;-70
2022/10/14 07:17:53;;;;;;;1999.90;999.90;;;14.70;99.90;;;;;;4975730;28;20570;-70
2022/10/14 07:20:18;;;;;;;1999.90;999.90;;;14.70;99.90;;;;;;4976233;28;20181;-70
2022/10/14 07:22:44;;;;;;;1999.90;999.90;;;14.70;99.90;;;;;;4976354;28;20184;-70
2022/10/14 07:25:10;;;;;;;1999.90;999.90;;;14.70;99.90;;;;;;4976302;28;20205;-70
2022/10/14 07:27:36;;;;;;;1999.90;999.90;;;14.80;99.90;;;;;;4975787;28;20189;-70
2022/10/14 07:30:03;;;;;;;1999.90;999.90;;;14.80;99.90;;;;;;4976138;28;20468;-70
2022/10/14 07:32:28;;;;;;;1999.90;999.90;;;14.80;99.90;;;;;;4976114;28;20556;-70
2022/10/14 07:34:54;;;;;;;1999.90;999.90;;;14.80;99.90;;;;;;4976072;28;20411;-70
2022/10/14 07:37:20;;;;;;;1999.90;999.90;;;14.90;99.90;;;;;;4975916;28;20671;-69
2022/10/14 07:39:45;;;;;;;1999.90;999.90;;;14.90;99.90;;;;;;4975939;28;20251;-70
2022/10/14 07:42:11;;;;;;;1999.90;999.90;;;15.00;99.90;;;;;;4975972;28;20221;-70
2022/10/14 07:44:38;;;;;;;1999.90;999.90;;;15.00;99.90;;;;;;4976081;28;20210;-70
2022/10/14 07:47:04;;;;;;;1999.90;999.90;;;15.00;99.90;;;;;;4975685;28;20704;-70
2022/10/14 07:49:30;;;;;;;1999.90;999.90;;;15.10;99.90;;;;;;4975857;28;20452;-70
2022/10/14 07:51:56;;;;;;;1999.90;999.90;;;15.20;99.90;;;;;;4976062;28;20413;-70
2022/10/14 07:54:24;;;;;;;1999.90;999.90;;;15.20;99.90;;;;;;4975937;28;20211;-70
2022/10/14 07:56:50;;;;;;;1999.90;999.90;;;15.30;99.90;;;;;;4975991;28;20198;-70
2022/10/14 07:59:18;;;;;;;1999.90;999.90;;;15.30;99.90;;;;;;4976141;28;20411;-70
2022/10/14 08:01:48;;;;;;;1999.90;999.90;;;15.30;99.90;;;;;;4975934;28;20412;-70
2022/10/14 08:04:14;;;;;;;1999.90;999.90;;;15.40;99.90;;;;;;4976001;28;20540;-70
2022/10/14 08:06:40;;;;;;;1999.90;999.90;;;15.40;99.90;;;;;;4975519;28;20463;-70
2022/10/14 08:09:08;;;;;;;1999.90;999.90;;;15.50;99.90;;;;;;4975090;28;20163;-71
2022/10/14 08:11:33;;;;;;;1999.90;999.90;;;15.50;99.90;;;;;;4974764;28;20204;-71
2022/10/14 08:13:59;;;;;;;1999.90;999.90;;;15.50;99.90;;;;;;4974302;28;20439;-71
2022/10/14 08:16:33;;;;;;;1999.90;999.90;;;15.50;99.90;;;;;;4974342;28;20207;-71
2022/10/14 08:19:02;;;;;;;1999.90;999.90;;;15.60;99.90;;;;;;4974717;28;20183;-71
2022/10/14 08:21:28;;;;;;;1999.90;999.90;;;15.60;99.90;;;;;;4974537;28;20424;-71
2022/10/14 08:23:53;;;;;;;1999.90;999.90;;;15.70;99.90;;;;;;4974510;28;20468;-71
2022/10/14 08:26:31;;;;;;;1999.90;999.90;;;15.80;99.90;;;;;;4974279;28;20429;-71
2022/10/14 08:28:58;;;;;;;1999.90;999.90;;;15.90;99.90;;;;;;4974205;28;20184;-71
2022/10/14 08:31:24;;;;;;;1999.90;999.90;;;16.00;99.90;;;;;;4974554;28;20826;-71
2022/10/14 08:33:50;;;;;;;1999.90;999.90;;;16.00;99.90;;;;;;4974356;28;20431;-71
2022/10/14 08:36:16;;;;;;;1999.90;999.90;;;16.10;99.90;;;;;;4974218;28;20187;-71
2022/10/14 08:38:42;;;;;;;1999.90;999.90;;;16.10;99.90;;;;;;4974460;28;20237;-70
2022/10/14 08:41:49;;;;;;;1999.90;999.90;;;16.10;99.90;;;;;;4975236;28;20577;-70
2022/10/14 08:44:41;;;;;;;1999.90;999.90;;;16.20;99.90;;;;;;4975275;28;20295;-70
2022/10/14 08:47:13;;;;;;;1999.90;999.90;;;16.20;99.90;;;;;;4975336;28;20446;-70
2022/10/14 08:49:58;;;;;;;1999.90;999.90;;;16.20;99.90;;;;;;4975338;28;20598;-70
2022/10/14 08:52:26;;;;;;;1999.90;999.90;;;16.30;99.90;;;;;;4975529;28;20773;-70
2022/10/14 08:54:57;;;;;;;1999.90;999.90;;;16.30;99.90;;;;;;4975046;28;20435;-70
2022/10/14 08:57:30;;;;;;;1999.90;999.90;;;16.30;99.90;;;;;;4974840;28;20432;-70
2022/10/14 08:59:55;;;;;;;1999.90;999.90;;;16.30;99.90;;;;;;4975288;28;20444;-69
2022/10/14 09:02:41;;;;;;;1999.90;999.90;;;16.30;99.90;;;;;;4974757;28;20408;-70
2022/10/14 09:05:14;;;;;;;1999.90;999.90;;;16.30;99.90;;;;;;4975671;28;20235;-70
2022/10/14 09:07:40;;;;;;;1999.90;999.90;;;16.40;99.90;;;;;;4974984;28;20519;-70
2022/10/14 09:10:11;;;;;;;1999.90;999.90;;;16.40;99.90;;;;;;4974972;28;20463;-70
2022/10/14 09:12:39;;;;;;;1999.90;999.90;;;16.40;99.90;;;;;;4975298;28;20408;-70
2022/10/14 09:15:20;;;;;;;1999.90;999.90;;;16.50;99.90;;;;;;4975064;28;20469;-70
2022/10/14 09:17:58;;;;;;;1999.90;999.90;;;16.40;99.90;;;;;;4974597;28;20462;-70
2022/10/14 09:20:24;;;;;;;1999.90;999.90;;;16.50;99.90;;;;;;4974757;28;20411;-70
2022/10/14 09:23:14;;;;;;;1999.90;999.90;;;16.50;99.90;;;;;;4975075;28;20615;-70
2022/10/14 09:25:49;;;;;;;1999.90;999.90;;;16.50;99.90;;;;;;4975136;28;20492;-70
2022/10/14 09:28:14;;;;;;;1999.90;999.90;;;16.50;99.90;;;;;;4974819;28;20493;-70
2022/10/14 09:30:40;;;;;;;1999.90;999.90;;;16.50;99.90;;;;;;4974846;28;20412;-70
2022/10/14 09:33:12;;;;;;;1999.90;999.90;;;16.50;99.90;;;;;;4975096;28;20313;-70
2022/10/14 09:35:42;;;;;;;1999.90;999.90;;;16.50;99.90;;;;;;4974950;28;20178;-70
2022/10/14 09:38:10;;;;;;;1999.90;999.90;;;16.50;99.90;;;;;;4974361;28;20521;-70
2022/10/14 09:40:48;;;;;;;1999.90;999.90;;;16.50;99.90;;;;;;4975164;28;20553;-70
2022/10/14 09:43:20;;;;;;;1999.90;999.90;;;16.50;99.90;;;;;;4974983;28;20457;-70
2022/10/14 09:45:58;;;;;;;1999.90;999.90;;;16.60;99.90;;;;;;4975074;28;20475;-70
2022/10/14 09:48:46;;;;;;;1999.90;999.90;;;16.70;99.90;;;;;;4974878;28;20445;-70
2022/10/14 09:51:31;;;;;;;1999.90;999.90;;;16.60;99.90;;;;;;4974986;28;20406;-70
2022/10/14 09:54:01;;;;;;;1999.90;999.90;;;16.70;99.90;;;;;;4974578;28;20467;-70
2022/10/14 09:56:28;;;;;;;1999.90;999.90;;;16.80;99.90;;;;;;4974101;28;20906;-70
2022/10/14 09:58:56;;;;;;;1999.90;999.90;;;16.80;99.90;;;;;;4974562;28;20770;-70
2022/10/14 10:01:41;;;;;;;1999.90;999.90;;;16.90;99.90;;;;;;4974623;28;20429;-70
2022/10/14 10:04:29;;;;;;;1999.90;999.90;;;16.90;99.90;;;;;;4974270;28;20846;-70
2022/10/14 10:06:55;;;;;;;1999.90;999.90;;;16.90;99.90;;;;;;4974563;28;20800;-70
2022/10/14 10:09:21;;;;;;;1999.90;999.90;;;16.90;99.90;;;;;;4974382;28;20412;-70
2022/10/14 10:11:47;;;;;;;1999.90;999.90;;;16.90;99.90;;;;;;4973999;28;20411;-70
2022/10/14 10:14:25;;;;;;;1999.90;999.90;;;17.00;99.90;;;;;;4974020;28;20496;-70
2022/10/14 10:17:18;;;;;;;1999.90;999.90;;;17.10;99.90;;;;;;4973654;28;20959;-70
2022/10/14 10:19:51;;;;;;;1999.90;999.90;;;17.10;99.90;;;;;;4974425;28;20421;-70
2022/10/14 10:22:30;;;;;;;1999.90;999.90;;;17.10;99.90;;;;;;4974123;28;20429;-70
2022/10/14 10:25:05;;;;;;;1999.90;999.90;;;17.10;99.90;;;;;;4973318;28;20591;-72
2022/10/14 10:27:36;;;;;;;1999.90;999.90;;;17.10;99.90;;;;;;4972625;28;20440;-71
2022/10/14 10:30:13;;;;;;;1999.90;999.90;;;17.10;99.90;;;;;;4972784;28;20458;-71
2022/10/14 10:32:48;;;;;;;1999.90;999.90;;;17.20;99.90;;;;;;4972865;28;20409;-70
2022/10/14 10:35:25;;;;;;;1999.90;999.90;;;17.20;99.90;;;;;;4973262;28;20509;-70
2022/10/14 10:38:05;;;;;;;1999.90;999.90;;;17.30;99.90;;;;;;4973948;28;20423;-70
2022/10/14 10:40:33;;;;;;;1999.90;999.90;;;17.30;99.90;;;;;;4976944;28;20420;-70
2022/10/14 10:43:18;;;;;;;1999.90;999.90;;;17.30;99.90;;;;;;4977234;28;20489;-71
2022/10/14 10:45:52;;;;;;;1999.90;999.90;;;17.30;99.90;;;;;;4977147;28;20408;-70
2022/10/14 10:48:31;;;;;;;1999.90;999.90;;;17.40;99.90;;;;;;4976910;28;20455;-71
2022/10/14 10:51:08;;;;;;;1999.90;999.90;;;17.40;99.90;;;;;;4976755;28;20477;-70
2022/10/14 10:53:48;;;;;;;1999.90;999.90;;;17.40;99.90;;;;;;4976806;28;20529;-70
2022/10/14 10:56:32;;;;;;;1999.90;999.90;;;17.50;99.90;;;;;;4976647;28;20411;-70
2022/10/14 10:59:18;;;;;;;1999.90;999.90;;;17.60;99.90;;;;;;4976541;28;20410;-70
2022/10/14 11:02:11;;;;;;;1999.90;999.90;;;17.60;99.90;;;;;;4976590;28;20411;-70
2022/10/14 11:04:45;;;;;;;1999.90;999.90;;;17.60;99.90;;;;;;4975986;28;20460;-71
2022/10/14 11:13:44;;;;;;;1999.90;999.90;;;17.70;99.90;;;;;;4975856;28;20401;-71
2022/10/14 11:16:28;;;;;;;1999.90;999.90;;;17.90;99.90;;;;;;4976184;28;20419;-70
2022/10/14 11:19:08;;;;;;;1999.90;999.90;;;18.00;99.90;;;;;;4975594;28;20441;-71
2022/10/14 11:22:06;;;;;;;1999.90;999.90;;;18.00;99.90;;;;;;4975726;28;20405;-71
2022/10/14 11:24:57;;;;;;;1999.90;999.90;;;18.00;99.90;;;;;;4964477;28;20493;-72
2022/10/14 11:27:26;;;;;;;1999.90;999.90;;;17.90;99.90;;;;;;4975340;28;20435;-71
2022/10/14 11:30:14;;;;;;;1999.90;999.90;;;17.80;99.90;;;;;;4975479;28;20842;-71
2022/10/14 11:33:02;;;;;;;1999.90;999.90;;;17.80;99.90;;;;;;4975607;28;20413;-69
2022/10/14 11:36:12;;;;;;;1999.90;999.90;;;17.90;99.90;;;;;;4976058;28;20454;-70
2022/10/14 11:38:52;;;;;;;1999.90;999.90;;;18.10;99.90;;;;;;4975627;28;20496;-70
2022/10/14 11:41:30;;;;;;;1999.90;999.90;;;18.10;99.90;;;;;;4975797;28;20433;-70
2022/10/14 11:44:18;;;;;;;1999.90;999.90;;;18.20;99.90;;;;;;4975605;28;20555;-70
2022/10/14 11:46:50;;;;;;;1999.90;999.90;;;18.20;99.90;;;;;;4975431;28;20495;-70
2022/10/14 11:49:19;;;;;;;1999.90;999.90;;;18.20;99.90;;;;;;4975115;28;20472;-70
2022/10/14 11:51:54;;;;;;;1999.90;999.90;;;18.10;99.90;;;;;;4976048;28;20413;-70
2022/10/14 11:54:49;;;;;;;1999.90;999.90;;;18.10;99.90;;;;;;4975736;28;20410;-70
2022/10/14 11:57:33;;;;;;;1999.90;999.90;;;18.00;99.90;;;;;;4975373;28;20457;-70
2022/10/14 12:00:15;;;;;;;1999.90;999.90;;;18.00;99.90;;;;;;4975734;28;20409;-70
2022/10/14 12:02:43;;;;;;;1999.90;999.90;;;18.00;99.90;;;;;;4975910;28;20444;-71
2022/10/14 12:05:09;;;;;;;1999.90;999.90;;;17.90;99.90;;;;;;4974823;28;20456;-71
2022/10/14 12:08:03;;;;;;;1999.90;999.90;;;17.90;99.90;;;;;;4974494;28;20480;-72
2022/10/14 12:10:39;;;;;;;1999.90;999.90;;;17.80;99.90;;;;;;4965077;28;20193;-71
2022/10/14 12:13:12;;;;;;;1999.90;999.90;;;17.80;99.90;;;;;;4974831;28;20405;-72
2022/10/14 12:15:41;;;;;;;1999.90;999.90;;;17.80;99.90;;;;;;4972447;28;20425;-72
2022/10/14 12:18:09;;;;;;;1999.90;999.90;;;17.80;99.90;;;;;;4974034;28;20890;-72
2022/10/14 12:20:52;;;;;;;1999.90;999.90;;;17.80;99.90;;;;;;4974621;28;20409;-73
2022/10/14 12:23:38;;;;;;;1999.90;999.90;;;17.90;99.90;;;;;;4974339;28;20496;-71